createdAt,value
2019-05-10T00:00:13.617Z,20.10
2019-05-10T00:02:59.629Z,19.03
2019-05-10T00:05:46.345Z,18.97
2019-05-10T00:08:32.352Z,19.17
2019-05-10T00:11:34.972Z,20.50
2019-05-10T00:14:33.762Z,19.97
2019-05-10T00:17:18.968Z,20.20
2019-05-10T00:19:47.083Z,20.13
2019-05-10T00:22:16.517Z,20.20
2019-05-10T00:25:00.552Z,21.97
2019-05-10T00:27:22.079Z,21.93
2019-05-10T00:29:50.101Z,22.70
2019-05-10T00:32:18.500Z,22.10
2019-05-10T00:34:46.488Z,21.27
2019-05-10T00:37:14.560Z,21.63
2019-05-10T00:39:42.925Z,22.67
2019-05-10T00:42:11.111Z,24.63
2019-05-10T00:44:39.024Z,25.67
2019-05-10T00:47:07.760Z,25.37
2019-05-10T00:49:35.787Z,25.00
2019-05-10T00:52:03.854Z,25.73
2019-05-10T00:54:32.194Z,25.30
2019-05-10T00:57:00.247Z,26.27
2019-05-10T00:59:28.248Z,27.13
2019-05-10T01:01:56.231Z,23.83
2019-05-10T01:04:24.670Z,23.67
2019-05-10T01:06:56.236Z,24.57
2019-05-10T01:09:23.035Z,25.87
2019-05-10T01:11:51.393Z,24.37
2019-05-10T01:14:19.698Z,24.57
2019-05-10T01:16:47.605Z,23.93
2019-05-10T01:19:15.535Z,25.63
2019-05-10T01:21:43.375Z,25.03
2019-05-10T01:24:11.319Z,23.97
2019-05-10T01:26:39.368Z,23.90
2019-05-10T01:29:07.432Z,23.40
2019-05-10T01:31:38.579Z,22.83
2019-05-10T01:34:07.077Z,24.57
2019-05-10T01:36:35.085Z,24.17
2019-05-10T01:39:04.171Z,24.07
2019-05-10T01:41:32.708Z,23.40
2019-05-10T01:44:00.593Z,21.93
2019-05-10T01:46:28.866Z,22.37
2019-05-10T01:48:57.363Z,22.70
2019-05-10T01:51:27.842Z,21.77
2019-05-10T01:53:55.411Z,22.27
2019-05-10T01:56:24.289Z,22.00
2019-05-10T01:58:52.791Z,21.10
2019-05-10T02:01:21.987Z,23.23
2019-05-10T02:03:50.204Z,23.03
2019-05-10T02:06:18.355Z,22.27
2019-05-10T02:08:46.392Z,23.33
2019-05-10T02:11:14.781Z,22.20
2019-05-10T02:13:43.041Z,22.83
2019-05-10T02:16:11.344Z,24.97
2019-05-10T02:18:39.437Z,24.03
2019-05-10T02:21:10.273Z,25.23
2019-05-10T02:23:40.598Z,23.67
2019-05-10T02:26:10.117Z,24.57
2019-05-10T02:28:38.319Z,25.90
2019-05-10T02:31:07.464Z,26.53
2019-05-10T02:33:36.109Z,25.47
2019-05-10T02:36:04.716Z,25.13
2019-05-10T02:38:33.413Z,25.80
2019-05-10T02:41:01.741Z,24.63
2019-05-10T02:43:29.927Z,24.70
2019-05-10T02:45:58.438Z,26.73
2019-05-10T02:48:27.155Z,26.57
2019-05-10T02:50:55.793Z,26.77
2019-05-10T02:53:24.438Z,28.60
2019-05-10T02:55:53.180Z,26.67
2019-05-10T02:58:22.006Z,26.73
2019-05-10T03:00:55.040Z,27.47
2019-05-10T03:03:25.692Z,27.40
2019-05-10T03:05:55.795Z,26.13
2019-05-10T03:08:24.059Z,24.57
2019-05-10T03:10:56.875Z,23.57
2019-05-10T03:13:28.833Z,24.77
2019-05-10T03:16:02.541Z,27.37
2019-05-10T03:18:31.991Z,23.40
2019-05-10T03:21:00.651Z,22.00
2019-05-10T03:23:29.391Z,22.50
2019-05-10T03:25:58.552Z,21.87
2019-05-10T03:28:27.174Z,19.90
2019-05-10T03:30:56.296Z,20.63
2019-05-10T03:33:24.902Z,20.77
2019-05-10T03:35:54.582Z,21.13
2019-05-10T03:38:23.870Z,20.77
2019-05-10T03:40:52.510Z,19.87
2019-05-10T03:43:21.110Z,19.30
2019-05-10T03:45:49.352Z,18.80
2019-05-10T03:48:17.647Z,19.73
2019-05-10T03:50:46.320Z,18.93
2019-05-10T03:53:14.611Z,19.70
2019-05-10T03:55:43.026Z,19.50
2019-05-10T03:58:11.296Z,20.37
2019-05-10T04:00:39.533Z,19.87
2019-05-10T04:03:07.859Z,21.47
2019-05-10T04:05:36.422Z,20.17
2019-05-10T04:08:05.173Z,19.90
2019-05-10T04:10:33.737Z,20.40
2019-05-10T04:13:07.238Z,21.93
2019-05-10T04:15:36.994Z,22.37
2019-05-10T04:18:05.773Z,21.77
2019-05-10T04:21:00.079Z,22.07
2019-05-10T04:23:31.402Z,21.83
2019-05-10T04:26:13.395Z,21.83
2019-05-10T04:28:53.570Z,22.33
2019-05-10T04:31:24.338Z,21.17
2019-05-10T04:33:55.991Z,21.73
2019-05-10T04:36:26.144Z,20.27
2019-05-10T04:38:56.202Z,21.53
2019-05-10T04:41:24.786Z,21.77
2019-05-10T04:43:53.208Z,24.70
2019-05-10T04:46:21.280Z,24.87
2019-05-10T04:48:49.350Z,24.53
2019-05-10T04:51:17.514Z,23.67
2019-05-10T04:53:46.513Z,24.83
2019-05-10T04:56:15.151Z,25.27
2019-05-10T04:58:43.639Z,26.53
2019-05-10T05:01:12.533Z,27.90
2019-05-10T05:03:40.547Z,25.47
2019-05-10T05:06:08.613Z,24.30
2019-05-10T05:08:37.162Z,24.43
2019-05-10T05:11:10.000Z,22.57
2019-05-10T05:13:39.752Z,22.97
2019-05-10T05:16:08.565Z,22.33
2019-05-10T05:18:36.986Z,22.00
2019-05-10T05:21:05.369Z,21.90
2019-05-10T05:23:34.109Z,20.00
2019-05-10T05:26:02.993Z,20.13
2019-05-10T05:28:33.260Z,19.03
2019-05-10T05:31:01.672Z,19.70
2019-05-10T05:33:29.955Z,19.17
2019-05-10T05:36:01.845Z,18.83
2019-05-10T05:38:27.919Z,18.37
2019-05-10T05:40:56.309Z,17.87
2019-05-10T05:43:25.503Z,18.70
2019-05-10T05:45:53.811Z,18.17
2019-05-10T05:48:23.118Z,19.87
2019-05-10T05:50:52.591Z,17.97
2019-05-10T05:53:22.517Z,19.30
2019-05-10T05:55:51.329Z,18.93
2019-05-10T05:58:26.820Z,17.30
2019-05-10T06:00:50.579Z,19.00
2019-05-10T06:03:27.532Z,18.57
2019-05-10T06:05:48.795Z,19.00
2019-05-10T06:08:23.110Z,19.57
2019-05-10T06:10:56.925Z,19.63
2019-05-10T06:13:23.510Z,19.90
2019-05-10T06:15:48.345Z,18.10
2019-05-10T06:18:16.421Z,18.73
2019-05-10T06:20:46.810Z,18.03
2019-05-10T06:23:14.870Z,16.23
2019-05-10T06:25:43.199Z,16.93
2019-05-10T06:28:25.847Z,17.67
2019-05-10T06:30:42.064Z,16.80
2019-05-10T07:43:28.762Z,9.33
2019-05-10T07:45:58.847Z,2.67
2019-05-10T07:48:23.810Z,1.70
2019-05-10T07:50:51.898Z,1.77
2019-05-10T07:53:22.930Z,1.30
2019-05-10T07:55:49.556Z,0.90
2019-05-10T07:58:17.445Z,1.03
2019-05-10T08:00:46.681Z,0.50
2019-05-10T08:03:17.640Z,0.50
2019-05-10T08:05:46.432Z,0.70
2019-05-10T08:08:13.688Z,0.83
2019-05-10T08:10:41.237Z,1.47
2019-05-10T08:13:08.839Z,0.87
2019-05-10T08:15:38.304Z,0.40
2019-05-10T08:18:06.194Z,0.40
2019-05-10T08:20:46.515Z,0.70
2019-05-10T08:23:03.472Z,0.40
2019-05-10T08:25:39.252Z,0.60
2019-05-10T08:28:05.449Z,0.83
2019-05-10T08:30:35.563Z,0.50
2019-05-10T08:33:09.399Z,1.07
2019-05-10T08:35:35.876Z,1.33
2019-05-10T08:38:04.556Z,2.00
2019-05-10T08:43:38.901Z,1.52
2019-05-10T08:46:05.091Z,1.57
2019-05-10T08:48:33.172Z,2.03
2019-05-10T08:51:05.589Z,1.97
2019-05-10T08:53:30.147Z,2.57
2019-05-10T08:55:58.884Z,1.97
2019-05-10T08:58:31.693Z,1.63
2019-05-10T09:01:12.205Z,1.40
2019-05-10T09:03:25.466Z,1.00
2019-05-10T09:05:53.062Z,1.22
2019-05-10T09:08:24.819Z,1.03
2019-05-10T09:13:37.299Z,0.70
2019-05-10T09:16:02.589Z,0.53
2019-05-10T09:21:19.338Z,0.90
2019-05-10T09:23:53.005Z,0.80
2019-05-10T09:26:16.769Z,0.42
2019-05-10T09:28:50.800Z,0.40
2019-05-10T09:31:21.825Z,0.80
2019-05-10T09:33:49.670Z,0.50
2019-05-10T09:36:13.003Z,0.75
2019-05-10T09:38:43.302Z,0.60
2019-05-10T09:41:11.882Z,0.80
2019-05-10T09:43:47.976Z,0.60
2019-05-10T09:46:09.167Z,0.80
2019-05-10T09:48:36.754Z,0.60
2019-05-10T09:51:04.578Z,0.60
2019-05-10T09:53:32.141Z,0.60
2019-05-10T09:58:43.990Z,0.60
2019-05-10T10:01:17.963Z,0.80
2019-05-10T10:03:43.650Z,0.50
2019-05-10T10:06:11.574Z,0.70
2019-05-10T10:08:43.593Z,0.80
2019-05-10T10:11:15.026Z,0.68
2019-05-10T10:13:43.395Z,1.07
2019-05-10T10:16:12.547Z,0.90
2019-05-10T10:18:37.311Z,2.20
2019-05-10T10:21:04.927Z,1.80
2019-05-10T10:23:34.820Z,1.37
2019-05-10T10:26:02.190Z,1.13
2019-05-10T10:28:29.804Z,1.77
2019-05-10T10:31:05.002Z,2.70
2019-05-10T10:33:29.342Z,2.57
2019-05-10T10:36:04.585Z,2.20
2019-05-10T10:38:30.933Z,2.73
2019-05-10T10:40:57.589Z,2.37
2019-05-10T10:43:27.262Z,5.40
2019-05-10T10:45:57.234Z,1.10
2019-05-10T10:48:24.611Z,1.30
2019-05-10T10:50:55.731Z,1.77
2019-05-10T10:53:21.621Z,1.80
2019-05-10T10:55:54.575Z,1.53
2019-05-10T10:58:18.995Z,1.87
2019-05-10T11:00:48.168Z,1.92
2019-05-10T11:03:15.910Z,2.15
2019-05-10T11:05:44.779Z,2.10
2019-05-10T11:08:12.504Z,2.50
2019-05-10T11:10:40.467Z,2.83
2019-05-10T11:13:17.838Z,3.25
2019-05-10T11:15:41.790Z,3.30
2019-05-10T11:18:08.847Z,3.52
2019-05-10T11:20:42.050Z,3.27
2019-05-10T11:23:06.694Z,2.90
2019-05-10T11:25:34.442Z,3.22
2019-05-10T11:28:02.498Z,3.72
2019-05-10T11:30:32.549Z,4.03
2019-05-10T11:33:00.520Z,2.00
2019-05-10T11:35:33.730Z,2.62
2019-05-10T11:37:58.339Z,3.57
2019-05-10T11:40:30.796Z,4.60
2019-05-10T11:42:55.578Z,4.00
2019-05-10T11:45:26.285Z,2.70
2019-05-10T11:47:54.397Z,3.70
2019-05-10T11:50:31.419Z,5.87
2019-05-10T11:52:52.591Z,5.23
2019-05-10T11:55:21.648Z,5.87
2019-05-10T11:58:02.047Z,5.90
2019-05-10T12:00:29.072Z,7.35
2019-05-10T12:03:11.467Z,5.45
2019-05-10T12:05:23.289Z,6.83
2019-05-10T12:07:54.195Z,6.35
2019-05-10T12:10:24.347Z,5.47
2019-05-10T12:17:57.802Z,6.28
2019-05-10T12:20:30.323Z,6.35
2019-05-10T12:22:47.744Z,5.00
2019-05-10T12:25:36.008Z,5.33
2019-05-10T12:26:06.530Z,6.35
2019-05-10T12:26:49.480Z,6.45
2019-05-10T12:27:48.938Z,6.60
2019-05-10T12:30:16.108Z,6.83
2019-05-10T12:32:55.657Z,4.53
2019-05-10T12:35:14.462Z,4.15
2019-05-10T12:37:48.117Z,5.93
2019-05-10T12:40:15.066Z,4.90
2019-05-10T12:42:41.798Z,5.87
2019-05-10T12:45:09.721Z,5.93
2019-05-10T12:47:37.288Z,5.50
2019-05-10T12:50:05.066Z,5.47
2019-05-10T12:52:32.577Z,5.57
2019-05-10T12:55:00.308Z,6.33
2019-05-10T12:57:28.228Z,5.57
2019-05-10T12:59:56.126Z,6.73
2019-05-10T13:02:24.035Z,5.03
2019-05-10T13:04:52.483Z,5.40
2019-05-10T13:07:20.507Z,5.43
2019-05-10T13:09:50.010Z,5.62
2019-05-10T13:12:17.821Z,5.37
2019-05-10T13:14:48.402Z,5.33
2019-05-10T13:17:17.007Z,5.10
2019-05-10T13:19:44.822Z,5.62
2019-05-10T13:22:12.433Z,5.50
2019-05-10T13:24:40.047Z,5.42
2019-05-10T13:27:07.547Z,5.13
2019-05-10T13:29:40.609Z,4.67
2019-05-10T13:35:07.127Z,5.20
2019-05-10T13:37:36.113Z,5.85
2019-05-10T13:40:07.591Z,5.87
2019-05-10T13:42:42.664Z,5.63
2019-05-10T13:45:05.923Z,5.75
2019-05-10T13:47:33.539Z,5.15
2019-05-10T13:50:02.443Z,6.30
2019-05-10T13:52:37.876Z,5.70
2019-05-10T13:55:00.103Z,5.45
2019-05-10T13:57:28.017Z,5.58
2019-05-10T13:59:57.450Z,5.95
2019-05-10T14:02:32.616Z,5.70
2019-05-10T14:04:54.919Z,5.72
2019-05-10T14:07:22.521Z,5.90
2019-05-10T14:09:50.150Z,6.08
2019-05-10T14:12:23.093Z,4.58
2019-05-10T14:14:48.311Z,5.50
2019-05-10T14:17:15.950Z,5.58
2019-05-10T14:19:43.600Z,5.40
2019-05-10T14:22:11.245Z,5.70
2019-05-10T14:24:38.853Z,5.05
2019-05-10T14:27:06.495Z,5.75
2019-05-10T14:29:36.813Z,5.87
2019-05-10T14:32:04.524Z,5.83
2019-05-10T14:34:32.135Z,5.80
2019-05-10T14:37:00.082Z,7.20
2019-05-10T14:39:27.711Z,5.83
2019-05-10T14:41:55.626Z,5.87
2019-05-10T14:44:25.044Z,5.67
2019-05-10T14:46:53.185Z,6.30
2019-05-10T14:49:20.889Z,4.28
2019-05-10T14:51:59.064Z,5.03
2019-05-10T14:54:19.973Z,5.83
2019-05-10T14:56:48.094Z,5.20
2019-05-10T14:59:15.728Z,4.23
2019-05-10T15:01:45.461Z,3.90
2019-05-10T15:04:17.867Z,3.08
2019-05-10T15:06:42.122Z,3.20
2019-05-10T15:09:20.461Z,3.42
2019-05-10T15:11:39.409Z,3.70
2019-05-10T15:14:07.126Z,4.43
2019-05-10T15:16:35.744Z,3.02
2019-05-10T15:19:03.602Z,3.77
2019-05-10T15:21:34.462Z,3.75
2019-05-10T15:24:01.104Z,3.60
2019-05-10T15:26:30.579Z,2.97
2019-05-10T15:28:58.524Z,3.00
2019-05-10T15:31:29.256Z,3.37
2019-05-10T15:33:55.838Z,4.00
2019-05-10T15:36:29.112Z,4.30
2019-05-10T15:38:53.434Z,3.73
2019-05-10T15:41:22.341Z,4.20
2019-05-10T15:43:53.434Z,5.10
2019-05-10T15:46:23.048Z,6.08
2019-05-10T15:48:49.500Z,6.40
2019-05-10T15:51:18.441Z,7.50
2019-05-10T15:59:37.710Z,7.90
2019-05-10T16:02:05.427Z,7.80
2019-05-10T16:04:33.023Z,7.37
2019-05-10T16:07:00.642Z,7.97
2019-05-10T16:09:28.496Z,8.30
2019-05-10T16:12:01.672Z,8.57
2019-05-10T16:14:25.784Z,10.83
2019-05-10T16:16:53.640Z,9.70
2019-05-10T16:19:21.405Z,5.93
2019-05-10T16:21:52.265Z,9.10
2019-05-10T16:24:25.523Z,7.20
2019-05-10T16:26:48.500Z,7.20
2019-05-10T16:29:16.082Z,7.30
2019-05-10T16:31:43.546Z,6.13
2019-05-10T16:34:11.204Z,5.03
2019-05-10T16:36:39.582Z,3.90
2019-05-10T16:39:07.209Z,4.73
2019-05-10T16:41:34.787Z,5.37
2019-05-10T16:44:02.616Z,3.23
2019-05-10T16:46:30.216Z,3.10
2019-05-10T16:48:57.865Z,3.17
2019-05-10T16:51:25.450Z,2.92
2019-05-10T16:53:53.048Z,3.57
2019-05-10T16:56:21.271Z,3.60
2019-05-10T16:58:53.330Z,3.00
2019-05-10T17:01:18.597Z,3.70
2019-05-10T17:03:51.007Z,4.10
2019-05-10T17:06:18.130Z,4.10
2019-05-10T17:08:45.843Z,6.53
2019-05-10T17:11:13.603Z,5.07
2019-05-10T17:13:43.083Z,4.60
2019-05-10T17:16:11.619Z,6.13
2019-05-10T17:18:40.692Z,6.03
2019-05-10T17:21:08.701Z,6.10
2019-05-10T17:23:36.439Z,6.40
2019-05-10T17:26:04.150Z,6.50
2019-05-10T17:28:35.399Z,6.77
2019-05-10T17:31:07.601Z,6.90
2019-05-10T17:33:31.373Z,6.90
2019-05-10T17:36:07.907Z,7.20
2019-05-10T17:38:31.645Z,8.47
2019-05-10T17:40:58.782Z,9.50
2019-05-10T17:43:26.538Z,9.57
2019-05-10T17:45:54.234Z,11.43
2019-05-10T17:48:21.959Z,10.87
2019-05-10T17:50:49.687Z,11.90
2019-05-10T17:53:17.696Z,12.93
2019-05-10T17:55:49.176Z,13.03
2019-05-10T17:58:17.241Z,13.33
2019-05-10T18:00:45.197Z,13.40
2019-05-10T18:03:12.988Z,12.30
2019-05-10T18:05:41.258Z,11.03
2019-05-10T18:08:10.342Z,12.77
2019-05-10T18:10:37.961Z,10.63
2019-05-10T18:13:06.558Z,9.70
2019-05-10T18:15:35.945Z,8.70
2019-05-10T18:18:04.383Z,10.60
2019-05-10T18:20:40.843Z,10.53
2019-05-10T18:23:02.986Z,10.40
2019-05-10T18:25:33.387Z,9.60
2019-05-10T18:28:01.493Z,9.70
2019-05-10T18:30:29.713Z,10.70
2019-05-10T18:32:58.007Z,9.50
2019-05-10T18:35:26.226Z,9.77
2019-05-10T18:37:59.596Z,9.53
2019-05-10T18:40:25.134Z,10.97
2019-05-10T18:42:57.865Z,10.90
2019-05-10T18:45:28.735Z,11.67
2019-05-10T18:47:57.007Z,11.87
2019-05-10T18:50:24.991Z,13.63
2019-05-10T18:52:54.035Z,12.90
2019-05-10T18:55:22.713Z,12.87
2019-05-10T18:57:52.620Z,16.20
2019-05-10T19:00:23.094Z,16.10
2019-05-10T19:02:55.437Z,15.77
2019-05-10T19:05:25.369Z,16.80
2019-05-10T19:08:02.644Z,17.80
2019-05-10T19:10:20.352Z,17.40
2019-05-10T19:12:59.507Z,17.00
2019-05-10T19:15:18.695Z,15.10
2019-05-10T19:17:47.314Z,16.80
2019-05-10T19:20:18.403Z,16.13
2019-05-10T19:22:46.368Z,17.97
2019-05-10T19:25:14.698Z,16.80
2019-05-10T19:27:44.147Z,15.83
2019-05-10T19:30:12.831Z,16.07
2019-05-10T19:32:40.727Z,16.27
2019-05-10T19:35:09.439Z,17.47
2019-05-10T19:37:37.961Z,16.53
2019-05-10T19:40:06.255Z,16.83
2019-05-10T19:42:37.211Z,17.80
2019-05-10T19:45:04.962Z,16.53
2019-05-10T19:47:32.921Z,18.33
2019-05-10T19:50:00.863Z,18.27
2019-05-10T19:52:29.059Z,18.13
2019-05-10T19:54:57.501Z,18.23
2019-05-10T19:57:26.471Z,18.37
2019-05-10T19:59:54.496Z,16.57
2019-05-10T20:02:22.405Z,16.40
2019-05-10T20:04:50.301Z,17.00
2019-05-10T20:07:18.360Z,15.33
2019-05-10T20:09:46.298Z,14.37
2019-05-10T20:12:14.406Z,16.80
2019-05-10T20:14:42.339Z,17.23
2019-05-10T20:17:10.664Z,17.90
2019-05-10T20:19:38.577Z,17.43
2019-05-10T20:22:07.134Z,18.60
2019-05-10T20:24:35.086Z,17.33
2019-05-10T20:27:03.125Z,19.40
2019-05-10T20:29:31.113Z,18.70
2019-05-10T20:31:59.137Z,17.57
2019-05-10T20:34:27.911Z,19.47
2019-05-10T20:36:55.847Z,18.40
2019-05-10T20:39:23.783Z,16.20
2019-05-10T20:41:52.094Z,15.70
2019-05-10T20:44:20.536Z,16.07
2019-05-10T20:46:49.844Z,17.10
2019-05-10T20:49:18.106Z,18.50
2019-05-10T20:51:46.202Z,18.10
2019-05-10T20:54:14.820Z,18.33
2019-05-10T20:56:42.924Z,17.30
2019-05-10T20:59:11.072Z,17.97
2019-05-10T21:01:40.602Z,18.50
2019-05-10T21:04:09.281Z,17.77
2019-05-10T21:06:37.431Z,17.47
2019-05-10T21:09:06.051Z,18.37
2019-05-10T21:11:34.224Z,19.20
2019-05-10T21:14:02.441Z,19.07
2019-05-10T21:16:31.008Z,18.77
2019-05-10T21:18:59.076Z,18.13
2019-05-10T21:21:27.270Z,19.57
2019-05-10T21:23:55.417Z,20.00
2019-05-10T21:26:23.608Z,19.93
2019-05-10T21:28:51.813Z,20.47
2019-05-10T21:31:20.953Z,24.02
2019-05-10T21:33:49.094Z,20.60
2019-05-10T21:36:17.433Z,21.27
2019-05-10T21:38:45.700Z,22.47
2019-05-10T21:41:13.804Z,20.40
2019-05-10T21:43:41.880Z,21.30
2019-05-10T21:46:09.922Z,21.63
2019-05-10T21:48:41.020Z,22.60
2019-05-10T21:51:09.196Z,20.90
2019-05-10T21:53:37.240Z,20.87
2019-05-10T21:56:05.616Z,19.13
2019-05-10T21:58:33.647Z,17.53
2019-05-10T22:01:01.713Z,19.83
2019-05-10T22:03:30.269Z,19.47
2019-05-10T22:05:58.250Z,18.93
2019-05-10T22:08:26.667Z,20.70
2019-05-10T22:10:55.122Z,21.67
2019-05-10T22:13:23.136Z,20.10
2019-05-10T22:15:52.313Z,20.23
2019-05-10T22:18:20.736Z,19.70
2019-05-10T22:20:48.750Z,19.23
2019-05-10T22:23:17.268Z,20.13
2019-05-10T22:25:45.708Z,18.83
2019-05-10T22:28:13.790Z,18.53
2019-05-10T22:30:42.858Z,17.43
2019-05-10T22:33:10.981Z,18.37
2019-05-10T22:35:40.401Z,18.27
2019-05-10T22:38:08.797Z,17.90
2019-05-10T22:40:36.986Z,17.97
2019-05-10T22:43:05.172Z,18.90
2019-05-10T22:45:33.310Z,17.83
2019-05-10T22:48:01.765Z,17.67
2019-05-10T22:50:30.650Z,19.17
2019-05-10T22:52:59.074Z,18.17
2019-05-10T22:55:27.190Z,18.93
2019-05-10T22:57:55.338Z,18.87
2019-05-10T23:00:23.742Z,19.90
2019-05-10T23:02:51.828Z,21.40
2019-05-10T23:05:19.910Z,20.10
2019-05-10T23:07:48.018Z,20.57
2019-05-10T23:10:16.317Z,20.30
2019-05-10T23:12:45.829Z,19.67
2019-05-10T23:15:14.115Z,19.93
2019-05-10T23:17:42.257Z,21.57
2019-05-10T23:20:10.952Z,20.67
2019-05-10T23:22:39.552Z,20.00
2019-05-10T23:25:08.078Z,21.13
2019-05-10T23:27:36.195Z,21.63
2019-05-10T23:30:05.281Z,21.10
2019-05-10T23:32:33.352Z,22.37
2019-05-10T23:35:01.367Z,22.93
2019-05-10T23:37:29.853Z,24.07
2019-05-10T23:39:57.872Z,24.27
2019-05-10T23:42:26.119Z,22.63
2019-05-10T23:44:54.509Z,22.57
2019-05-10T23:47:22.929Z,25.30
2019-05-10T23:49:51.049Z,24.23
2019-05-10T23:52:20.803Z,24.60
2019-05-10T23:54:49.311Z,25.27
2019-05-10T23:57:17.439Z,25.53
2019-05-10T23:59:45.477Z,25.40
